Latest Coastal Weather Observations for Robe Airport

IDS60701

Issued at 11:51 am CST Monday 25 September 2017 (issued every 10 minutes, with the page automatically refreshed every 10 minutes)

About coastal observations | Map of coastal stations | Coastal observations for SA | Marine services | Other Formats
Station Details ID: 026105 Name: ROBE AIRFIELD Lat: -37.18 Lon: 139.81 Height: 3.0 m
Data from the previous 72 hours. | See also: Recent months at Robe Airport
Date/Time
CST
Temp
°C
Wind Pressure Rain since
9am
mm
Weather Cloud Vis
km
Sea
Height
m
Swell
Dir  Spd
kts
Gust
kts
hPa Trend Height
m
Period
s
Dir
25/11:30am 14.9 SW 10 14 1012.9 - 0.0 - - - - - - -
25/11:00am 14.2 SW 10 15 1012.6 - 0.0 - - - - - - -
25/10:30am 14.2 SW 9 14 1012.6 - 0.0 - - - - - - -
25/10:00am 14.3 SW 9 13 1012.6 - 0.0 - - - - - - -
25/09:30am 14.3 SW 8 14 1012.4 - 0.0 - - - - - - -
25/09:00am 12.6 WSW 6 9 1012.2 - 1.8 - - - - - - -
25/08:30am 13.2 SW 7 12 1011.6 - 1.8 - - - - - - -
25/08:00am 13.2 SW 8 12 1011.1 - 1.8 - - - - - - -
25/07:30am 12.1 SSW 8 14 1010.5 - 1.8 - - - - - - -
25/07:00am 12.0 SW 8 14 1010.0 - 1.8 - - - - - - -
25/06:30am 11.7 SW 6 9 1009.6 - 1.8 - - - - - - -
25/06:00am 11.6 SW 8 12 1009.2 - 1.8 - - - - - - -
25/05:30am 11.2 WSW 6 10 1008.8 - 1.8 - - - - - - -
25/05:00am 11.0 SW 8 14 1008.2 - 1.8 - - - - - - -
25/04:30am 10.7 SW 5 9 1007.8 - 1.8 - - - - - - -
25/04:00am 10.6 SW 6 10 1007.5 - 1.8 - - - - - - -
25/03:30am 11.0 SW 7 12 1007.2 - 1.8 - - - - - - -
25/03:00am 11.3 SW 8 14 1007.1 - 1.8 Rain - - - - - -
25/02:30am 11.4 WSW 8 14 1007.0 - 1.6 - - - - - - -
25/02:00am 11.4 WSW 7 11 1006.9 - 1.6 - - - - - - -
25/01:30am 11.4 WSW 8 13 1006.9 - 1.6 - - - - - - -
25/01:00am 11.7 WSW 7 11 1007.0 - 1.6 - - - - - - -
25/12:30am 11.3 WSW 7 11 1006.9 - 1.6 - - - - - - -
25/12:00am 11.3 W 7 12 1006.8 - 1.6 Recent precip. - - - - - -
 
Date/Time
CST
Temp
°C
Wind Pressure Rain since
9am
mm
Weather Cloud Vis
km
Sea
Height
m
Swell
Dir  Spd
kts
Gust
kts
hPa Trend Height
m
Period
s
Dir
24/11:30pm 12.1 W 7 12 1006.5 - 1.2 - - - - - - -
24/11:00pm 12.0 W 9 14 1006.5 - 1.2 - - - - - - -
24/10:30pm 12.3 W 8 14 1006.3 - 1.2 - - - - - - -
24/10:00pm 11.9 W 8 15 1006.1 - 1.2 - - - - - - -
24/09:30pm 12.3 W 9 16 1006.0 - 1.2 - - - - - - -
24/09:00pm 12.1 W 9 14 1005.5 - 1.2 - - - - - - -
24/08:30pm 12.1 W 9 15 1005.1 - 1.2 - - - - - - -
24/08:00pm 12.0 W 13 21 1004.5 - 1.2 - - - - - - -
24/07:30pm 12.9 W 13 21 1003.9 - 0.8 - - - - - - -
24/07:00pm 12.7 W 12 18 1003.4 - 0.8 - - - - - - -
24/06:30pm 13.0 W 14 23 1002.9 - 0.8 - - - - - - -
24/06:00pm 13.4 W 17 27 1002.3 - 0.8 - - - - - - -
24/05:58pm 13.4 W 17 27 1002.2 - 0.8 - - - - - - -
24/05:30pm 13.6 W 15 23 1001.7 - 0.8 - - - - - - -
24/05:00pm 13.8 W 16 27 1001.2 - 0.8 - - - - - - -
24/04:34pm 13.4 W 15 26 1000.8 - 0.8 - - - - - - -
24/04:30pm 13.6 W 16 25 1000.7 - 0.8 - - - - - - -
24/04:03pm 14.8 W 16 27 1000.2 - 0.6 - - - - - - -
24/04:00pm 14.9 W 18 27 1000.1 - 0.6 - - - - - - -
24/03:30pm 14.7 WNW 17 27 999.7 - 0.6 - - - - - - -
24/03:04pm 14.9 WNW 19 30 999.3 - 0.6 - - - - - - -
24/03:00pm 15.4 WNW 19 28 999.4 - 0.6 - - - - - - -
24/02:53pm 15.1 WNW 18 28 999.3 - 0.6 - - - - - - -
24/02:30pm 14.6 WNW 20 29 999.1 - 0.6 - - - - - - -
24/02:01pm 14.5 WNW 17 27 998.9 - 0.6 - - - - - - -
24/02:00pm 14.6 WNW 18 27 998.9 - 0.6 - - - - - - -
24/01:34pm 14.9 WNW 19 31 998.8 - 0.2 - - - - - - -
24/01:30pm 15.4 WNW 20 29 998.8 - 0.2 - - - - - - -
24/01:01pm 16.0 WNW 21 32 998.8 - 0.2 - - - - - - -
24/01:00pm 15.4 WNW 22 32 998.8 - 0.2 - - - - - - -
24/12:47pm 15.4 WNW 21 32 998.8 - 0.2 - - - - - - -
24/12:30pm 14.6 NW 22 32 998.8 - 0.2 - - - - - - -
24/12:00pm 15.0 NW 22 34 998.9 - 0.0 - - - - - - -
24/11:35am 14.4 NW 21 31 998.8 - 0.0 - - - - - - -
24/11:30am 14.6 NW 22 32 998.7 - 0.0 - - - - - - -
24/11:00am 15.1 NW 22 33 998.7 - 0.0 - - - - - - -
24/10:30am 15.5 NW 22 35 998.9 - 0.0 - - - - - - -
24/10:00am 14.8 NW 23 33 998.7 - 0.0 - - - - - - -
24/09:38am 15.1 NW 21 31 998.8 - 0.0 - - - - - - -
24/09:30am 14.8 NW 22 32 998.8 - 0.0 - - - - - - -
24/09:07am 15.1 WNW 18 29 998.8 - 0.0 - - - - - - -
24/09:00am 14.8 WNW 21 28 998.7 - 4.6 - - - - - - -
24/08:32am 14.7 WNW 19 29 998.6 - 4.6 - - - - - - -
24/08:30am 14.9 WNW 20 29 998.6 - 4.6 - - - - - - -
24/08:01am 12.5 WNW 19 30 998.4 - 4.6 - - - - - - -
24/08:00am 12.6 WNW 20 30 998.5 - 4.6 - - - - - - -
24/07:30am 14.0 WNW 18 29 998.2 - 4.6 - - - - - - -
24/07:01am 13.3 WNW 19 30 998.1 - 4.6 - - - - - - -
24/07:00am 13.4 WNW 20 30 998.0 - 4.6 - - - - - - -
24/06:38am 13.5 WNW 18 28 998.0 - 4.6 - - - - - - -
24/06:30am 13.2 WNW 16 24 998.0 - 4.6 - - - - - - -
24/06:00am 13.1 WNW 16 27 997.9 - 4.6 - - - - - - -
24/05:40am 12.9 WNW 17 29 997.7 - 4.6 - - - - - - -
24/05:30am 12.8 WNW 17 26 997.7 - 4.6 - - - - - - -
24/05:13am 12.6 WNW 16 30 997.5 - 4.6 - - - - - - -
24/05:00am 12.6 WNW 19 28 997.5 - 4.6 - - - - - - -
24/04:47am 12.3 WNW 16 26 997.6 - 4.6 - - - - - - -
24/04:30am 12.2 WNW 18 27 997.6 - 4.6 - - - - - - -
24/04:06am 12.5 WNW 15 25 997.4 - 4.6 - - - - - - -
24/04:00am 12.0 WNW 13 21 997.4 - 4.6 - - - - - - -
24/03:30am 11.6 WNW 13 22 997.4 - 4.4 - - - - - - -
24/03:03am 12.6 WNW 17 29 997.5 - 4.4 - - - - - - -
24/03:00am 12.7 NW 17 25 997.5 - 4.4 Recent precip. - - - - - -
24/02:30am 10.9 WNW 12 19 997.8 - 2.2 - - - - - - -
24/02:00am 10.4 WNW 14 21 998.1 - 1.8 - - - - - - -
24/01:30am 11.1 W 15 24 998.4 - 1.4 - - - - - - -
24/01:08am 12.7 NW 17 33 998.6 - 1.0 - - - - - - -
24/01:00am 13.2 NW 16 25 998.4 - 0.8 - - - - - - -
24/12:30am 13.1 NW 15 21 998.8 - 0.8 - - - - - - -
24/12:00am 13.4 WNW 16 23 999.3 - 0.6 - - - - - - -
 
Date/Time
CST
Temp
°C
Wind Pressure Rain since
9am
mm
Weather Cloud Vis
km
Sea
Height
m
Swell
Dir  Spd
kts
Gust
kts
hPa Trend Height
m
Period
s
Dir
23/11:30pm 14.4 WNW 15 24 999.4 - 0.6 - - - - - - -
23/11:00pm 14.0 WNW 14 19 999.6 - 0.6 - - - - - - -
23/10:30pm 13.9 WNW 17 23 999.7 - 0.6 - - - - - - -
23/10:00pm 13.4 WNW 15 22 1000.0 - 0.6 - - - - - - -
23/09:32pm 13.9 WNW 17 27 1000.0 - 0.6 - - - - - - -
23/09:30pm 14.0 WNW 19 28 1000.0 - 0.6 - - - - - - -
23/09:00pm 14.0 WNW 14 21 1000.0 - 0.6 - - - - - - -
23/08:30pm 13.8 WNW 15 22 999.7 - 0.6 - - - - - - -
23/08:13pm 13.6 WNW 15 26 999.7 - 0.6 - - - - - - -
23/08:00pm 13.5 WNW 15 24 999.7 - 0.6 - - - - - - -
23/07:35pm 14.6 WNW 15 25 999.3 - 0.6 - - - - - - -
23/07:30pm 14.5 WNW 15 23 999.3 - 0.6 - - - - - - -
23/07:10pm 14.5 WNW 16 26 998.9 - 0.6 - - - - - - -
23/07:00pm 14.3 WNW 15 24 998.8 - 0.6 - - - - - - -
23/06:39pm 14.3 WNW 16 27 998.5 - 0.6 - - - - - - -
23/06:30pm 14.4 WNW 15 23 998.4 - 0.6 - - - - - - -
23/06:04pm 14.6 WNW 17 28 998.1 - 0.6 - - - - - - -
23/06:00pm 14.6 WNW 19 28 998.2 - 0.6 - - - - - - -
23/05:44pm 14.7 WNW 17 27 997.9 - 0.6 - - - - - - -
23/05:30pm 14.8 WNW 15 23 997.8 - 0.6 - - - - - - -
23/05:00pm 15.4 WNW 17 31 997.1 - 0.6 - - - - - - -
23/04:53pm 15.4 WNW 18 31 997.1 - 0.6 - - - - - - -
23/04:30pm 15.9 WNW 18 26 996.9 - 0.6 - - - - - - -
23/04:00pm 16.2 WNW 21 32 996.6 - 0.6 - - - - - - -
23/03:30pm 17.0 WNW 16 27 996.5 - 0.6 - - - - - - -
23/03:00pm 17.6 WNW 16 23 995.9 - 0.6 - - - - - - -
23/02:46pm 17.6 WNW 18 30 995.8 - 0.6 - - - - - - -
23/02:30pm 17.6 NW 17 25 995.7 - 0.6 - - - - - - -
23/02:00pm 15.7 NW 15 22 995.6 - 0.6 - - - - - - -
23/01:30pm 16.2 NW 13 19 995.4 - 0.6 - - - - - - -
23/01:00pm 15.9 WNW 13 17 994.9 - 0.6 - - - - - - -
23/12:30pm 16.4 WNW 5 9 994.5 - 0.6 - - - - - - -
23/12:00pm 16.6 WSW 7 13 994.7 - 0.2 Recent precip. - - - - - -
23/11:30am 19.0 SW 7 12 993.8 - 0.2 - - - - - - -
23/11:00am 18.3 SSW 3 7 993.7 - 0.0 - - - - - - -
23/10:30am 18.1 ENE 1 3 993.7 - 0.0 - - - - - - -
23/10:00am 16.6 ENE 5 6 994.0 - 0.0 - - - - - - -
23/09:37am 16.5 NNE 6 9 993.1 - 0.0 - - - - - - -
23/09:30am 16.7 N 4 7 995.8 - 0.0 - - - - - - -
23/09:00am 15.9 NE 2 4 995.9 - 0.0 - - - - - - -
23/08:57am 15.7 ENE 2 3 995.3 - 0.0 - - - - - - -
23/08:30am 14.8 ESE 6 10 993.2 - 0.0 - - - - - - -
23/08:00am 14.0 E 7 11 994.5 - 0.0 - - - - - - -
23/07:30am 13.5 E 7 11 994.9 - 0.0 - - - - - - -
23/07:00am 13.2 E 6 9 996.0 - 0.0 - - - - - - -
23/06:30am 13.0 NNE 2 4 996.3 - 0.0 - - - - - - -
23/06:00am 13.2 SE 4 7 996.6 - 0.0 - - - - - - -
23/05:30am 12.8 E 6 9 995.7 - 0.0 - - - - - - -
23/05:00am 12.8 E 5 7 997.0 - 0.0 - - - - - - -
23/04:46am 12.5 ESE 5 7 997.4 - 0.0 - - - - - - -
23/04:30am 12.6 SSW 1 3 999.4 - 0.0 - - - - - - -
23/04:00am 12.7 SSW 2 3 999.1 - 0.0 - - - - - - -
23/03:30am 14.0 SW 4 7 999.2 - 0.0 - - - - - - -
23/03:00am 13.4 NW 2 4 999.7 - 0.0 - - - - - - -
23/02:30am 12.9 W 4 6 1000.0 - 0.0 - - - - - - -
23/02:00am 11.6 NNE 1 3 999.0 - 0.0 - - - - - - -
23/01:30am 12.2 NE 4 6 998.9 - 0.0 - - - - - - -
23/01:00am 10.8 NE 5 6 999.3 - 0.0 - - - - - - -
23/12:30am 10.9 NW 1 2 1000.7 - 0.0 - - - - - - -
23/12:00am 10.8 NW 2 2 1001.0 - 0.0 - - - - - - -
 
Date/Time
CST
Temp
°C
Wind Pressure Rain since
9am
mm
Weather Cloud Vis
km
Sea
Height
m
Swell
Dir  Spd
kts
Gust
kts
hPa Trend Height
m
Period
s
Dir
22/11:30pm 11.8 N 2 2 1001.4 - 0.0 - - - - - - -
22/11:00pm 11.6 W 1 2 1001.9 - 0.0 - - - - - - -
22/10:30pm 11.2 CALM 0 0 1001.9 - 0.0 - - - - - - -
22/10:00pm 12.2 WNW 1 2 1001.5 - 0.0 - - - - - - -
22/09:30pm 13.7 WNW 3 4 1002.0 - 0.0 - - - - - - -
22/09:00pm 14.8 WNW 3 4 1002.1 - 0.0 - - - - - - -
22/08:30pm 16.3 WNW 4 6 1002.1 - 0.0 - - - - - - -
22/08:00pm 17.3 WNW 6 9 1002.3 - 0.0 - - - - - - -
22/07:30pm 19.2 NW 7 15 1001.7 - 0.0 - - - - - - -
22/07:00pm 19.2 N 5 6 1001.4 - 0.0 - - - - - - -
22/06:30pm 20.0 NNW 7 10 1001.4 - 0.0 - - - - - - -
22/06:00pm 20.5 N 8 10 1001.4 - 0.0 - - - - - - -
22/05:30pm 21.8 N 10 14 1001.3 - 0.0 - - - - - - -
22/05:00pm 22.6 N 10 14 1001.0 - 0.0 - - - - - - -
22/04:30pm 23.0 N 10 14 1001.4 - 0.0 - - - - - - -
22/04:00pm 22.4 N 11 15 1001.2 - 0.0 - - - - - - -
22/03:30pm 22.7 N 13 19 1001.7 - 0.0 - - - - - - -
22/03:00pm 22.8 N 14 19 1002.1 - 0.0 - - - - - - -
22/02:30pm 23.4 N 14 21 1002.3 - 0.0 - - - - - - -
22/02:00pm 23.1 N 16 27 1002.2 - 0.0 - - - - - - -
22/01:30pm 23.6 N 16 23 1002.3 - 0.0 - - - - - - -
22/01:00pm 22.6 N 15 21 1003.0 - 0.0 - - - - - - -
22/12:30pm 22.2 N 17 21 1003.6 - 0.0 - - - - - - -
22/12:00pm 21.2 N 16 20 1004.1 - 0.0 - - - - - - -

Other Formats:

Comma delimited format used in spreadsheet applications
http://www.bom.gov.au/fwo/IDS60701/IDS60701.95816.axf

JavaScript Object Notation format (JSON) in row-major order
http://www.bom.gov.au/fwo/IDS60701/IDS60701.95816.json